sensor_id;sensor_type;location;lat;lon;timestamp;P1;durP1;ratioP1;P2;durP2;ratioP2
7675;SDS011;3880;51.464;-2.566;2022-09-17T00:00:19;7.03;;;4.23;;
7675;SDS011;3880;51.464;-2.566;2022-09-17T00:02:48;6.20;;;3.83;;
7675;SDS011;3880;51.464;-2.566;2022-09-17T00:05:19;5.80;;;4.60;;
7675;SDS011;3880;51.464;-2.566;2022-09-17T00:07:49;6.10;;;4.20;;
7675;SDS011;3880;51.464;-2.566;2022-09-17T00:10:19;6.23;;;4.03;;
7675;SDS011;3880;51.464;-2.566;2022-09-17T00:12:47;6.53;;;4.93;;
7675;SDS011;3880;51.464;-2.566;2022-09-17T00:15:14;6.63;;;4.17;;
7675;SDS011;3880;51.464;-2.566;2022-09-17T00:17:41;6.83;;;4.20;;
7675;SDS011;3880;51.464;-2.566;2022-09-17T00:20:08;8.97;;;4.37;;
7675;SDS011;3880;51.464;-2.566;2022-09-17T00:22:36;6.67;;;4.23;;
7675;SDS011;3880;51.464;-2.566;2022-09-17T00:25:05;4.93;;;3.40;;
7675;SDS011;3880;51.464;-2.566;2022-09-17T00:27:32;5.80;;;3.80;;
7675;SDS011;3880;51.464;-2.566;2022-09-17T00:29:59;7.00;;;4.00;;
7675;SDS011;3880;51.464;-2.566;2022-09-17T00:32:26;6.63;;;4.07;;
7675;SDS011;3880;51.464;-2.566;2022-09-17T00:34:54;7.53;;;4.33;;
7675;SDS011;3880;51.464;-2.566;2022-09-17T00:37:21;8.60;;;4.37;;
7675;SDS011;3880;51.464;-2.566;2022-09-17T00:39:48;6.17;;;3.40;;
7675;SDS011;3880;51.464;-2.566;2022-09-17T00:42:16;4.13;;;2.93;;
7675;SDS011;3880;51.464;-2.566;2022-09-17T00:44:47;5.80;;;3.40;;
7675;SDS011;3880;51.464;-2.566;2022-09-17T00:47:21;6.57;;;3.57;;
7675;SDS011;3880;51.464;-2.566;2022-09-17T00:49:52;7.83;;;3.67;;
7675;SDS011;3880;51.464;-2.566;2022-09-17T00:52:24;7.57;;;4.00;;
7675;SDS011;3880;51.464;-2.566;2022-09-17T00:54:55;5.67;;;3.40;;
7675;SDS011;3880;51.464;-2.566;2022-09-17T00:57:26;7.43;;;4.20;;
7675;SDS011;3880;51.464;-2.566;2022-09-17T00:59:54;4.07;;;3.47;;
7675;SDS011;3880;51.464;-2.566;2022-09-17T01:02:21;7.50;;;4.17;;
7675;SDS011;3880;51.464;-2.566;2022-09-17T01:04:49;7.83;;;3.77;;
7675;SDS011;3880;51.464;-2.566;2022-09-17T01:07:19;5.43;;;3.57;;
7675;SDS011;3880;51.464;-2.566;2022-09-17T01:10:02;6.80;;;3.80;;
7675;SDS011;3880;51.464;-2.566;2022-09-17T01:12:45;5.07;;;3.33;;
7675;SDS011;3880;51.464;-2.566;2022-09-17T01:15:21;5.23;;;3.60;;
7675;SDS011;3880;51.464;-2.566;2022-09-17T01:18:00;7.47;;;3.57;;
7675;SDS011;3880;51.464;-2.566;2022-09-17T01:24:12;5.83;;;4.50;;
7675;SDS011;3880;51.464;-2.566;2022-09-17T01:30:14;9.43;;;5.37;;
7675;SDS011;3880;51.464;-2.566;2022-09-17T01:32:57;8.17;;;4.20;;
7675;SDS011;3880;51.464;-2.566;2022-09-17T01:35:32;9.60;;;5.87;;
7675;SDS011;3880;51.464;-2.566;2022-09-17T01:38:08;9.07;;;4.70;;
7675;SDS011;3880;51.464;-2.566;2022-09-17T01:40:40;11.77;;;4.77;;
7675;SDS011;3880;51.464;-2.566;2022-09-17T01:43:16;6.63;;;4.47;;
7675;SDS011;3880;51.464;-2.566;2022-09-17T01:45:50;9.47;;;4.70;;
7675;SDS011;3880;51.464;-2.566;2022-09-17T01:48:20;7.40;;;4.00;;
7675;SDS011;3880;51.464;-2.566;2022-09-17T01:50:54;9.77;;;4.60;;
7675;SDS011;3880;51.464;-2.566;2022-09-17T01:53:24;5.47;;;4.07;;
7675;SDS011;3880;51.464;-2.566;2022-09-17T01:56:02;5.60;;;4.07;;
7675;SDS011;3880;51.464;-2.566;2022-09-17T01:58:35;9.67;;;5.07;;
7675;SDS011;3880;51.464;-2.566;2022-09-17T02:01:07;7.57;;;4.57;;
7675;SDS011;3880;51.464;-2.566;2022-09-17T02:03:38;6.97;;;4.20;;
7675;SDS011;3880;51.464;-2.566;2022-09-17T02:06:09;7.87;;;4.03;;
7675;SDS011;3880;51.464;-2.566;2022-09-17T02:08:40;8.80;;;4.87;;
7675;SDS011;3880;51.464;-2.566;2022-09-17T02:11:12;11.30;;;4.30;;
7675;SDS011;3880;51.464;-2.566;2022-09-17T02:13:42;5.13;;;3.63;;
7675;SDS011;3880;51.464;-2.566;2022-09-17T02:16:14;7.00;;;4.77;;
7675;SDS011;3880;51.464;-2.566;2022-09-17T02:18:48;7.40;;;3.53;;
7675;SDS011;3880;51.464;-2.566;2022-09-17T02:21:19;6.57;;;4.00;;
7675;SDS011;3880;51.464;-2.566;2022-09-17T02:23:56;10.33;;;4.70;;
7675;SDS011;3880;51.464;-2.566;2022-09-17T02:26:31;8.07;;;4.20;;
7675;SDS011;3880;51.464;-2.566;2022-09-17T02:29:01;9.60;;;5.70;;
7675;SDS011;3880;51.464;-2.566;2022-09-17T02:31:35;9.00;;;4.67;;
7675;SDS011;3880;51.464;-2.566;2022-09-17T02:34:02;6.43;;;4.30;;
7675;SDS011;3880;51.464;-2.566;2022-09-17T02:36:30;8.13;;;4.40;;
7675;SDS011;3880;51.464;-2.566;2022-09-17T02:38:59;9.03;;;4.47;;
7675;SDS011;3880;51.464;-2.566;2022-09-17T02:41:31;9.00;;;4.90;;
7675;SDS011;3880;51.464;-2.566;2022-09-17T02:44:07;9.17;;;5.20;;
7675;SDS011;3880;51.464;-2.566;2022-09-17T02:46:48;7.97;;;4.37;;
7675;SDS011;3880;51.464;-2.566;2022-09-17T02:49:37;12.77;;;4.97;;
7675;SDS011;3880;51.464;-2.566;2022-09-17T02:52:20;6.67;;;4.63;;
7675;SDS011;3880;51.464;-2.566;2022-09-17T02:54:57;4.13;;;2.90;;
7675;SDS011;3880;51.464;-2.566;2022-09-17T02:57:37;9.93;;;5.17;;
7675;SDS011;3880;51.464;-2.566;2022-09-17T03:00:11;6.40;;;3.10;;
7675;SDS011;3880;51.464;-2.566;2022-09-17T03:02:42;7.07;;;3.17;;
7675;SDS011;3880;51.464;-2.566;2022-09-17T03:05:13;6.13;;;3.60;;
7675;SDS011;3880;51.464;-2.566;2022-09-17T03:07:43;5.57;;;3.70;;
7675;SDS011;3880;51.464;-2.566;2022-09-17T03:10:10;4.93;;;3.30;;
7675;SDS011;3880;51.464;-2.566;2022-09-17T03:12:37;5.60;;;3.00;;
7675;SDS011;3880;51.464;-2.566;2022-09-17T03:15:05;4.33;;;2.80;;
7675;SDS011;3880;51.464;-2.566;2022-09-17T03:17:33;6.33;;;3.10;;
7675;SDS011;3880;51.464;-2.566;2022-09-17T03:20:02;4.10;;;2.70;;
7675;SDS011;3880;51.464;-2.566;2022-09-17T03:22:31;5.10;;;2.90;;
7675;SDS011;3880;51.464;-2.566;2022-09-17T03:24:58;3.53;;;2.90;;
7675;SDS011;3880;51.464;-2.566;2022-09-17T03:27:25;6.77;;;2.97;;
7675;SDS011;3880;51.464;-2.566;2022-09-17T03:29:52;4.67;;;2.97;;
7675;SDS011;3880;51.464;-2.566;2022-09-17T03:32:19;5.43;;;2.63;;
7675;SDS011;3880;51.464;-2.566;2022-09-17T03:34:46;5.77;;;2.50;;
7675;SDS011;3880;51.464;-2.566;2022-09-17T03:37:14;3.80;;;2.07;;
7675;SDS011;3880;51.464;-2.566;2022-09-17T03:39:41;3.20;;;2.40;;
7675;SDS011;3880;51.464;-2.566;2022-09-17T03:42:08;2.60;;;2.40;;
7675;SDS011;3880;51.464;-2.566;2022-09-17T03:44:35;4.63;;;2.10;;
7675;SDS011;3880;51.464;-2.566;2022-09-17T03:47:02;4.87;;;2.67;;
7675;SDS011;3880;51.464;-2.566;2022-09-17T03:49:29;5.10;;;2.23;;
7675;SDS011;3880;51.464;-2.566;2022-09-17T03:51:56;2.40;;;2.10;;
7675;SDS011;3880;51.464;-2.566;2022-09-17T03:54:25;3.93;;;3.13;;
7675;SDS011;3880;51.464;-2.566;2022-09-17T03:56:52;3.53;;;2.20;;
7675;SDS011;3880;51.464;-2.566;2022-09-17T03:59:19;4.70;;;2.37;;
7675;SDS011;3880;51.464;-2.566;2022-09-17T04:01:46;3.67;;;2.57;;
7675;SDS011;3880;51.464;-2.566;2022-09-17T04:04:13;2.47;;;2.27;;
7675;SDS011;3880;51.464;-2.566;2022-09-17T04:06:40;2.67;;;2.00;;
7675;SDS011;3880;51.464;-2.566;2022-09-17T04:09:07;5.47;;;2.17;;
7675;SDS011;3880;51.464;-2.566;2022-09-17T04:11:36;3.37;;;2.37;;
7675;SDS011;3880;51.464;-2.566;2022-09-17T04:14:03;3.60;;;2.43;;
7675;SDS011;3880;51.464;-2.566;2022-09-17T04:16:30;4.00;;;2.47;;
7675;SDS011;3880;51.464;-2.566;2022-09-17T04:18:57;2.50;;;2.30;;
7675;SDS011;3880;51.464;-2.566;2022-09-17T04:21:24;3.80;;;2.73;;
7675;SDS011;3880;51.464;-2.566;2022-09-17T04:23:51;7.17;;;3.37;;
7675;SDS011;3880;51.464;-2.566;2022-09-17T04:26:18;3.53;;;2.07;;
7675;SDS011;3880;51.464;-2.566;2022-09-17T04:28:46;19.97;;;2.70;;
7675;SDS011;3880;51.464;-2.566;2022-09-17T04:31:13;2.30;;;2.10;;
7675;SDS011;3880;51.464;-2.566;2022-09-17T04:33:40;2.60;;;2.40;;
7675;SDS011;3880;51.464;-2.566;2022-09-17T04:36:07;3.83;;;2.57;;
7675;SDS011;3880;51.464;-2.566;2022-09-17T04:38:34;4.10;;;2.53;;
7675;SDS011;3880;51.464;-2.566;2022-09-17T04:41:01;3.00;;;2.67;;
7675;SDS011;3880;51.464;-2.566;2022-09-17T04:43:28;6.73;;;2.50;;
7675;SDS011;3880;51.464;-2.566;2022-09-17T04:45:56;3.27;;;2.50;;
7675;SDS011;3880;51.464;-2.566;2022-09-17T04:48:23;3.17;;;2.43;;
7675;SDS011;3880;51.464;-2.566;2022-09-17T04:50:50;3.70;;;2.23;;
7675;SDS011;3880;51.464;-2.566;2022-09-17T04:53:17;2.60;;;2.30;;
7675;SDS011;3880;51.464;-2.566;2022-09-17T04:55:44;7.13;;;2.73;;
7675;SDS011;3880;51.464;-2.566;2022-09-17T04:58:11;3.37;;;2.23;;
7675;SDS011;3880;51.464;-2.566;2022-09-17T05:00:38;2.97;;;1.87;;
7675;SDS011;3880;51.464;-2.566;2022-09-17T05:03:07;2.67;;;2.47;;
7675;SDS011;3880;51.464;-2.566;2022-09-17T05:05:34;1.70;;;1.60;;
7675;SDS011;3880;51.464;-2.566;2022-09-17T05:08:01;2.73;;;2.20;;
7675;SDS011;3880;51.464;-2.566;2022-09-17T05:10:28;2.47;;;2.27;;
7675;SDS011;3880;51.464;-2.566;2022-09-17T05:12:56;2.77;;;2.17;;
7675;SDS011;3880;51.464;-2.566;2022-09-17T05:15:23;2.73;;;2.00;;
7675;SDS011;3880;51.464;-2.566;2022-09-17T05:17:52;3.27;;;2.10;;
7675;SDS011;3880;51.464;-2.566;2022-09-17T05:20:20;2.30;;;2.00;;
7675;SDS011;3880;51.464;-2.566;2022-09-17T05:22:48;3.93;;;2.00;;
7675;SDS011;3880;51.464;-2.566;2022-09-17T05:25:17;3.33;;;2.00;;
7675;SDS011;3880;51.464;-2.566;2022-09-17T05:27:48;3.70;;;2.10;;
7675;SDS011;3880;51.464;-2.566;2022-09-17T05:30:15;2.97;;;2.03;;
7675;SDS011;3880;51.464;-2.566;2022-09-17T05:32:42;3.40;;;2.20;;
7675;SDS011;3880;51.464;-2.566;2022-09-17T05:35:09;3.57;;;2.07;;
7675;SDS011;3880;51.464;-2.566;2022-09-17T05:37:37;4.13;;;3.00;;
7675;SDS011;3880;51.464;-2.566;2022-09-17T05:40:06;4.20;;;2.23;;
7675;SDS011;3880;51.464;-2.566;2022-09-17T05:42:34;2.70;;;2.50;;
7675;SDS011;3880;51.464;-2.566;2022-09-17T05:45:01;4.03;;;2.10;;
7675;SDS011;3880;51.464;-2.566;2022-09-17T05:47:29;5.30;;;2.40;;
7675;SDS011;3880;51.464;-2.566;2022-09-17T05:49:56;3.87;;;2.57;;
7675;SDS011;3880;51.464;-2.566;2022-09-17T05:52:25;2.67;;;2.20;;
7675;SDS011;3880;51.464;-2.566;2022-09-17T05:54:54;3.17;;;2.53;;
7675;SDS011;3880;51.464;-2.566;2022-09-17T05:57:21;8.30;;;2.30;;
7675;SDS011;3880;51.464;-2.566;2022-09-17T05:59:48;4.77;;;2.53;;
7675;SDS011;3880;51.464;-2.566;2022-09-17T06:02:15;4.70;;;2.20;;
7675;SDS011;3880;51.464;-2.566;2022-09-17T06:04:42;3.33;;;2.20;;
7675;SDS011;3880;51.464;-2.566;2022-09-17T06:07:10;5.27;;;2.43;;
7675;SDS011;3880;51.464;-2.566;2022-09-17T06:09:37;3.47;;;2.00;;
7675;SDS011;3880;51.464;-2.566;2022-09-17T06:12:06;3.30;;;2.30;;
7675;SDS011;3880;51.464;-2.566;2022-09-17T06:14:33;2.30;;;2.10;;
7675;SDS011;3880;51.464;-2.566;2022-09-17T06:17:00;4.77;;;2.30;;
7675;SDS011;3880;51.464;-2.566;2022-09-17T06:19:27;2.00;;;1.70;;
7675;SDS011;3880;51.464;-2.566;2022-09-17T06:21:56;3.20;;;2.30;;
7675;SDS011;3880;51.464;-2.566;2022-09-17T06:24:23;2.80;;;2.27;;
7675;SDS011;3880;51.464;-2.566;2022-09-17T06:26:50;14.57;;;2.33;;
7675;SDS011;3880;51.464;-2.566;2022-09-17T06:29:19;4.50;;;2.40;;
7675;SDS011;3880;51.464;-2.566;2022-09-17T06:31:46;5.43;;;2.20;;
7675;SDS011;3880;51.464;-2.566;2022-09-17T06:34:13;2.13;;;2.03;;
7675;SDS011;3880;51.464;-2.566;2022-09-17T06:36:41;2.00;;;1.80;;
7675;SDS011;3880;51.464;-2.566;2022-09-17T06:39:08;3.53;;;2.33;;
7675;SDS011;3880;51.464;-2.566;2022-09-17T06:41:35;4.27;;;1.83;;
7675;SDS011;3880;51.464;-2.566;2022-09-17T06:44:06;3.73;;;1.90;;
7675;SDS011;3880;51.464;-2.566;2022-09-17T06:46:34;3.43;;;2.00;;
7675;SDS011;3880;51.464;-2.566;2022-09-17T06:49:01;2.97;;;2.20;;
7675;SDS011;3880;51.464;-2.566;2022-09-17T06:51:28;5.27;;;2.67;;
7675;SDS011;3880;51.464;-2.566;2022-09-17T06:53:55;2.63;;;1.90;;
7675;SDS011;3880;51.464;-2.566;2022-09-17T06:56:22;2.63;;;2.00;;
7675;SDS011;3880;51.464;-2.566;2022-09-17T06:58:49;3.33;;;1.90;;
7675;SDS011;3880;51.464;-2.566;2022-09-17T07:01:17;4.47;;;2.23;;
7675;SDS011;3880;51.464;-2.566;2022-09-17T07:03:45;3.23;;;1.93;;
7675;SDS011;3880;51.464;-2.566;2022-09-17T07:06:13;2.70;;;1.80;;
7675;SDS011;3880;51.464;-2.566;2022-09-17T07:08:40;3.93;;;2.30;;
7675;SDS011;3880;51.464;-2.566;2022-09-17T07:11:07;4.53;;;2.20;;
7675;SDS011;3880;51.464;-2.566;2022-09-17T07:13:34;5.33;;;2.33;;
7675;SDS011;3880;51.464;-2.566;2022-09-17T07:16:02;4.17;;;2.23;;
7675;SDS011;3880;51.464;-2.566;2022-09-17T07:18:30;4.10;;;1.97;;
7675;SDS011;3880;51.464;-2.566;2022-09-17T07:20:59;5.87;;;2.13;;
7675;SDS011;3880;51.464;-2.566;2022-09-17T07:23:27;4.57;;;2.00;;
7675;SDS011;3880;51.464;-2.566;2022-09-17T07:25:58;4.67;;;2.40;;
7675;SDS011;3880;51.464;-2.566;2022-09-17T07:28:26;3.57;;;2.10;;
7675;SDS011;3880;51.464;-2.566;2022-09-17T07:30:54;4.30;;;2.73;;
7675;SDS011;3880;51.464;-2.566;2022-09-17T07:33:22;2.80;;;2.50;;
7675;SDS011;3880;51.464;-2.566;2022-09-17T07:35:51;10.77;;;2.90;;
7675;SDS011;3880;51.464;-2.566;2022-09-17T07:38:20;8.10;;;2.90;;
7675;SDS011;3880;51.464;-2.566;2022-09-17T07:40:54;7.80;;;2.43;;
7675;SDS011;3880;51.464;-2.566;2022-09-17T07:43:23;2.37;;;2.10;;
7675;SDS011;3880;51.464;-2.566;2022-09-17T07:45:50;2.40;;;2.10;;
7675;SDS011;3880;51.464;-2.566;2022-09-17T07:48:18;3.10;;;2.73;;
7675;SDS011;3880;51.464;-2.566;2022-09-17T07:50:45;5.17;;;2.53;;
7675;SDS011;3880;51.464;-2.566;2022-09-17T07:53:12;3.50;;;2.20;;
7675;SDS011;3880;51.464;-2.566;2022-09-17T07:55:41;6.30;;;2.40;;
7675;SDS011;3880;51.464;-2.566;2022-09-17T07:58:08;6.43;;;2.33;;
7675;SDS011;3880;51.464;-2.566;2022-09-17T08:00:36;7.07;;;2.73;;
7675;SDS011;3880;51.464;-2.566;2022-09-17T08:03:06;7.77;;;2.93;;
7675;SDS011;3880;51.464;-2.566;2022-09-17T08:05:33;4.00;;;2.47;;
7675;SDS011;3880;51.464;-2.566;2022-09-17T08:08:00;7.50;;;2.80;;
7675;SDS011;3880;51.464;-2.566;2022-09-17T08:10:27;3.80;;;2.67;;
7675;SDS011;3880;51.464;-2.566;2022-09-17T08:12:56;3.50;;;2.20;;
7675;SDS011;3880;51.464;-2.566;2022-09-17T08:15:24;2.87;;;2.40;;
7675;SDS011;3880;51.464;-2.566;2022-09-17T08:17:51;5.73;;;2.60;;
7675;SDS011;3880;51.464;-2.566;2022-09-17T08:20:18;3.60;;;2.13;;
7675;SDS011;3880;51.464;-2.566;2022-09-17T08:22:45;2.70;;;2.43;;
7675;SDS011;3880;51.464;-2.566;2022-09-17T08:25:12;3.50;;;2.33;;
7675;SDS011;3880;51.464;-2.566;2022-09-17T08:27:41;7.27;;;2.57;;
7675;SDS011;3880;51.464;-2.566;2022-09-17T08:30:10;6.83;;;2.90;;
7675;SDS011;3880;51.464;-2.566;2022-09-17T08:32:37;3.07;;;2.20;;
7675;SDS011;3880;51.464;-2.566;2022-09-17T08:35:04;4.03;;;1.90;;
7675;SDS011;3880;51.464;-2.566;2022-09-17T08:37:31;3.50;;;1.90;;
7675;SDS011;3880;51.464;-2.566;2022-09-17T08:39:59;5.67;;;2.30;;
7675;SDS011;3880;51.464;-2.566;2022-09-17T08:42:26;4.33;;;1.67;;
7675;SDS011;3880;51.464;-2.566;2022-09-17T08:44:58;4.77;;;2.23;;
7675;SDS011;3880;51.464;-2.566;2022-09-17T08:47:29;5.17;;;2.30;;
7675;SDS011;3880;51.464;-2.566;2022-09-17T08:50:01;3.43;;;1.63;;
7675;SDS011;3880;51.464;-2.566;2022-09-17T08:55:34;3.37;;;1.60;;
7675;SDS011;3880;51.464;-2.566;2022-09-17T09:01:07;4.73;;;1.67;;
7675;SDS011;3880;51.464;-2.566;2022-09-17T09:03:51;5.00;;;1.52;;
7675;SDS011;3880;51.464;-2.566;2022-09-17T09:06:33;2.38;;;1.30;;
7675;SDS011;3880;51.464;-2.566;2022-09-17T09:09:03;7.13;;;1.70;;
7675;SDS011;3880;51.464;-2.566;2022-09-17T09:11:33;2.97;;;1.55;;
7675;SDS011;3880;51.464;-2.566;2022-09-17T09:14:03;5.88;;;1.60;;
7675;SDS011;3880;51.464;-2.566;2022-09-17T09:16:37;3.88;;;1.50;;
7675;SDS011;3880;51.464;-2.566;2022-09-17T09:19:13;3.92;;;1.67;;
7675;SDS011;3880;51.464;-2.566;2022-09-17T09:21:48;3.58;;;1.40;;
7675;SDS011;3880;51.464;-2.566;2022-09-17T09:24:29;3.88;;;1.58;;
7675;SDS011;3880;51.464;-2.566;2022-09-17T09:27:04;2.90;;;1.30;;
7675;SDS011;3880;51.464;-2.566;2022-09-17T09:29:45;6.15;;;1.60;;
7675;SDS011;3880;51.464;-2.566;2022-09-17T09:32:23;5.47;;;1.77;;
7675;SDS011;3880;51.464;-2.566;2022-09-17T09:35:02;4.28;;;1.23;;
7675;SDS011;3880;51.464;-2.566;2022-09-17T09:37:41;6.18;;;1.60;;
7675;SDS011;3880;51.464;-2.566;2022-09-17T09:40:18;2.35;;;1.25;;
7675;SDS011;3880;51.464;-2.566;2022-09-17T09:42:52;3.85;;;1.45;;
7675;SDS011;3880;51.464;-2.566;2022-09-17T09:45:35;3.92;;;1.45;;
7675;SDS011;3880;51.464;-2.566;2022-09-17T09:48:11;3.83;;;1.25;;
7675;SDS011;3880;51.464;-2.566;2022-09-17T09:50:54;5.82;;;1.67;;
7675;SDS011;3880;51.464;-2.566;2022-09-17T09:53:35;2.25;;;1.00;;
7675;SDS011;3880;51.464;-2.566;2022-09-17T09:56:20;3.47;;;1.38;;
7675;SDS011;3880;51.464;-2.566;2022-09-17T09:58:58;3.85;;;1.60;;
7675;SDS011;3880;51.464;-2.566;2022-09-17T10:01:26;5.88;;;1.67;;
7675;SDS011;3880;51.464;-2.566;2022-09-17T10:03:55;3.10;;;1.50;;
7675;SDS011;3880;51.464;-2.566;2022-09-17T10:06:27;6.80;;;2.03;;
7675;SDS011;3880;51.464;-2.566;2022-09-17T10:09:09;3.03;;;1.50;;
7675;SDS011;3880;51.464;-2.566;2022-09-17T10:11:37;2.03;;;1.02;;
7675;SDS011;3880;51.464;-2.566;2022-09-17T10:14:14;1.52;;;0.95;;
7675;SDS011;3880;51.464;-2.566;2022-09-17T10:16:48;4.22;;;1.63;;
7675;SDS011;3880;51.464;-2.566;2022-09-17T10:19:17;2.58;;;1.35;;
7675;SDS011;3880;51.464;-2.566;2022-09-17T10:21:50;2.72;;;1.42;;
7675;SDS011;3880;51.464;-2.566;2022-09-17T10:24:20;3.80;;;1.40;;
7675;SDS011;3880;51.464;-2.566;2022-09-17T10:26:49;5.25;;;1.38;;
7675;SDS011;3880;51.464;-2.566;2022-09-17T10:29:18;7.72;;;1.48;;
7675;SDS011;3880;51.464;-2.566;2022-09-17T10:31:46;8.98;;;1.70;;
7675;SDS011;3880;51.464;-2.566;2022-09-17T10:34:20;3.33;;;1.10;;
7675;SDS011;3880;51.464;-2.566;2022-09-17T10:36:49;4.85;;;1.77;;
7675;SDS011;3880;51.464;-2.566;2022-09-17T10:39:18;3.70;;;1.63;;
7675;SDS011;3880;51.464;-2.566;2022-09-17T10:41:56;7.20;;;1.58;;
7675;SDS011;3880;51.464;-2.566;2022-09-17T10:44:25;3.10;;;1.60;;
7675;SDS011;3880;51.464;-2.566;2022-09-17T10:46:52;3.25;;;1.90;;
7675;SDS011;3880;51.464;-2.566;2022-09-17T10:49:33;2.75;;;1.08;;
7675;SDS011;3880;51.464;-2.566;2022-09-17T10:52:09;3.25;;;1.38;;
7675;SDS011;3880;51.464;-2.566;2022-09-17T10:54:48;2.22;;;1.30;;
7675;SDS011;3880;51.464;-2.566;2022-09-17T10:57:29;1.77;;;1.27;;
7675;SDS011;3880;51.464;-2.566;2022-09-17T11:00:11;3.67;;;1.73;;
7675;SDS011;3880;51.464;-2.566;2022-09-17T11:05:44;4.05;;;1.65;;
7675;SDS011;3880;51.464;-2.566;2022-09-17T11:08:26;2.83;;;1.48;;
7675;SDS011;3880;51.464;-2.566;2022-09-17T11:11:01;2.80;;;1.73;;
7675;SDS011;3880;51.464;-2.566;2022-09-17T11:13:36;5.53;;;1.70;;
7675;SDS011;3880;51.464;-2.566;2022-09-17T11:16:15;2.75;;;1.30;;
7675;SDS011;3880;51.464;-2.566;2022-09-17T11:18:57;4.00;;;1.42;;
7675;SDS011;3880;51.464;-2.566;2022-09-17T11:21:35;4.25;;;1.50;;
7675;SDS011;3880;51.464;-2.566;2022-09-17T11:24:21;6.57;;;1.40;;
7675;SDS011;3880;51.464;-2.566;2022-09-17T11:26:58;2.17;;;1.23;;
7675;SDS011;3880;51.464;-2.566;2022-09-17T11:29:37;5.35;;;1.77;;
7675;SDS011;3880;51.464;-2.566;2022-09-17T11:32:13;4.00;;;1.35;;
7675;SDS011;3880;51.464;-2.566;2022-09-17T11:34:54;6.05;;;1.52;;
7675;SDS011;3880;51.464;-2.566;2022-09-17T11:37:27;3.00;;;1.30;;
7675;SDS011;3880;51.464;-2.566;2022-09-17T11:40:01;2.13;;;1.20;;
7675;SDS011;3880;51.464;-2.566;2022-09-17T11:42:32;4.78;;;2.00;;
7675;SDS011;3880;51.464;-2.566;2022-09-17T11:45:04;1.33;;;1.20;;
7675;SDS011;3880;51.464;-2.566;2022-09-17T11:47:41;4.20;;;1.10;;
7675;SDS011;3880;51.464;-2.566;2022-09-17T11:50:15;4.30;;;1.27;;
7675;SDS011;3880;51.464;-2.566;2022-09-17T11:52:48;3.03;;;1.38;;
7675;SDS011;3880;51.464;-2.566;2022-09-17T11:55:29;1.70;;;0.90;;
7675;SDS011;3880;51.464;-2.566;2022-09-17T11:58:01;3.45;;;1.15;;
7675;SDS011;3880;51.464;-2.566;2022-09-17T12:00:39;4.10;;;1.33;;
7675;SDS011;3880;51.464;-2.566;2022-09-17T12:03:15;2.38;;;1.20;;
7675;SDS011;3880;51.464;-2.566;2022-09-17T12:05:47;3.75;;;1.20;;
7675;SDS011;3880;51.464;-2.566;2022-09-17T12:08:18;3.88;;;1.10;;
7675;SDS011;3880;51.464;-2.566;2022-09-17T12:10:51;5.88;;;1.60;;
7675;SDS011;3880;51.464;-2.566;2022-09-17T12:13:27;2.38;;;1.20;;
7675;SDS011;3880;51.464;-2.566;2022-09-17T12:16:08;2.53;;;1.35;;
7675;SDS011;3880;51.464;-2.566;2022-09-17T12:18:44;3.85;;;1.10;;
7675;SDS011;3880;51.464;-2.566;2022-09-17T12:21:17;4.68;;;1.42;;
7675;SDS011;3880;51.464;-2.566;2022-09-17T12:23:48;1.10;;;0.85;;
7675;SDS011;3880;51.464;-2.566;2022-09-17T12:26:25;2.70;;;1.13;;
7675;SDS011;3880;51.464;-2.566;2022-09-17T12:29:12;4.60;;;0.80;;
7675;SDS011;3880;51.464;-2.566;2022-09-17T12:31:50;3.10;;;1.30;;
7675;SDS011;3880;51.464;-2.566;2022-09-17T12:34:25;1.80;;;1.08;;
7675;SDS011;3880;51.464;-2.566;2022-09-17T12:37:03;2.55;;;1.25;;
7675;SDS011;3880;51.464;-2.566;2022-09-17T12:39:52;2.50;;;1.05;;
7675;SDS011;3880;51.464;-2.566;2022-09-17T12:42:46;2.67;;;1.20;;
7675;SDS011;3880;51.464;-2.566;2022-09-17T12:45:29;3.65;;;1.30;;
7675;SDS011;3880;51.464;-2.566;2022-09-17T12:48:09;2.40;;;1.08;;
7675;SDS011;3880;51.464;-2.566;2022-09-17T12:50:55;2.58;;;1.15;;
7675;SDS011;3880;51.464;-2.566;2022-09-17T12:53:33;4.97;;;1.38;;
7675;SDS011;3880;51.464;-2.566;2022-09-17T12:56:05;2.70;;;1.73;;
7675;SDS011;3880;51.464;-2.566;2022-09-17T12:58:56;5.10;;;2.50;;
7675;SDS011;3880;51.464;-2.566;2022-09-17T13:01:32;1.95;;;1.10;;
7675;SDS011;3880;51.464;-2.566;2022-09-17T13:04:09;7.32;;;4.18;;
7675;SDS011;3880;51.464;-2.566;2022-09-17T13:12:43;2.65;;;1.42;;
7675;SDS011;3880;51.464;-2.566;2022-09-17T13:18:11;3.17;;;1.65;;
7675;SDS011;3880;51.464;-2.566;2022-09-17T13:20:47;3.55;;;1.30;;
7675;SDS011;3880;51.464;-2.566;2022-09-17T13:23:32;4.90;;;1.90;;
7675;SDS011;3880;51.464;-2.566;2022-09-17T13:26:03;8.38;;;1.65;;
7675;SDS011;3880;51.464;-2.566;2022-09-17T13:28:38;2.92;;;1.30;;
7675;SDS011;3880;51.464;-2.566;2022-09-17T13:31:07;3.03;;;1.15;;
7675;SDS011;3880;51.464;-2.566;2022-09-17T13:34:11;4.10;;;1.20;;
7675;SDS011;3880;51.464;-2.566;2022-09-17T13:36:53;2.13;;;1.20;;
7675;SDS011;3880;51.464;-2.566;2022-09-17T13:39:32;2.72;;;1.50;;
7675;SDS011;3880;51.464;-2.566;2022-09-17T13:42:07;3.78;;;1.65;;
7675;SDS011;3880;51.464;-2.566;2022-09-17T13:44:38;2.33;;;1.20;;
7675;SDS011;3880;51.464;-2.566;2022-09-17T13:47:09;6.07;;;4.25;;
7675;SDS011;3880;51.464;-2.566;2022-09-17T13:49:48;2.28;;;1.27;;
7675;SDS011;3880;51.464;-2.566;2022-09-17T13:52:31;2.72;;;1.40;;
7675;SDS011;3880;51.464;-2.566;2022-09-17T13:55:00;1.27;;;1.17;;
7675;SDS011;3880;51.464;-2.566;2022-09-17T13:57:28;3.47;;;1.40;;
7675;SDS011;3880;51.464;-2.566;2022-09-17T13:59:58;3.83;;;1.40;;
7675;SDS011;3880;51.464;-2.566;2022-09-17T14:02:28;3.13;;;1.50;;
7675;SDS011;3880;51.464;-2.566;2022-09-17T14:05:23;3.30;;;1.30;;
7675;SDS011;3880;51.464;-2.566;2022-09-17T14:10:59;3.05;;;1.73;;
7675;SDS011;3880;51.464;-2.566;2022-09-17T14:13:44;3.67;;;1.40;;
7675;SDS011;3880;51.464;-2.566;2022-09-17T14:19:24;3.60;;;1.33;;
7675;SDS011;3880;51.464;-2.566;2022-09-17T14:22:11;2.67;;;1.15;;
7675;SDS011;3880;51.464;-2.566;2022-09-17T14:24:47;3.50;;;1.45;;
7675;SDS011;3880;51.464;-2.566;2022-09-17T14:27:20;2.63;;;1.50;;
7675;SDS011;3880;51.464;-2.566;2022-09-17T14:30:03;3.03;;;1.35;;
7675;SDS011;3880;51.464;-2.566;2022-09-17T14:32:35;5.47;;;1.60;;
7675;SDS011;3880;51.464;-2.566;2022-09-17T14:35:13;2.28;;;1.40;;
7675;SDS011;3880;51.464;-2.566;2022-09-17T14:37:46;2.70;;;1.40;;
7675;SDS011;3880;51.464;-2.566;2022-09-17T14:40:18;1.80;;;1.15;;
7675;SDS011;3880;51.464;-2.566;2022-09-17T14:42:47;3.17;;;2.28;;
7675;SDS011;3880;51.464;-2.566;2022-09-17T14:45:20;3.72;;;1.10;;
7675;SDS011;3880;51.464;-2.566;2022-09-17T14:50:45;2.65;;;1.00;;
7675;SDS011;3880;51.464;-2.566;2022-09-17T14:53:15;3.17;;;1.25;;
7675;SDS011;3880;51.464;-2.566;2022-09-17T14:55:45;2.65;;;1.38;;
7675;SDS011;3880;51.464;-2.566;2022-09-17T14:58:24;3.00;;;1.50;;
7675;SDS011;3880;51.464;-2.566;2022-09-17T15:00:56;1.77;;;1.05;;
7675;SDS011;3880;51.464;-2.566;2022-09-17T15:03:23;2.05;;;1.10;;
7675;SDS011;3880;51.464;-2.566;2022-09-17T15:05:51;2.65;;;1.33;;
7675;SDS011;3880;51.464;-2.566;2022-09-17T15:08:20;2.75;;;1.30;;
7675;SDS011;3880;51.464;-2.566;2022-09-17T15:10:49;3.97;;;1.13;;
7675;SDS011;3880;51.464;-2.566;2022-09-17T15:13:19;1.40;;;1.30;;
7675;SDS011;3880;51.464;-2.566;2022-09-17T15:16:00;1.75;;;1.33;;
7675;SDS011;3880;51.464;-2.566;2022-09-17T15:18:35;1.15;;;0.93;;
7675;SDS011;3880;51.464;-2.566;2022-09-17T15:21:17;3.85;;;1.30;;
7675;SDS011;3880;51.464;-2.566;2022-09-17T15:23:55;1.75;;;1.30;;
7675;SDS011;3880;51.464;-2.566;2022-09-17T15:26:27;2.30;;;1.10;;
7675;SDS011;3880;51.464;-2.566;2022-09-17T15:28:59;3.38;;;1.77;;
7675;SDS011;3880;51.464;-2.566;2022-09-17T15:31:27;2.50;;;1.40;;
7675;SDS011;3880;51.464;-2.566;2022-09-17T15:33:57;1.30;;;1.20;;
7675;SDS011;3880;51.464;-2.566;2022-09-17T15:36:25;2.05;;;1.00;;
7675;SDS011;3880;51.464;-2.566;2022-09-17T15:38:55;3.42;;;1.73;;
7675;SDS011;3880;51.464;-2.566;2022-09-17T15:41:25;2.15;;;1.33;;
7675;SDS011;3880;51.464;-2.566;2022-09-17T15:46:48;3.38;;;1.10;;
7675;SDS011;3880;51.464;-2.566;2022-09-17T15:52:29;3.35;;;1.10;;
7675;SDS011;3880;51.464;-2.566;2022-09-17T15:55:01;2.40;;;1.35;;
7675;SDS011;3880;51.464;-2.566;2022-09-17T15:57:28;4.47;;;1.35;;
7675;SDS011;3880;51.464;-2.566;2022-09-17T16:00:04;5.88;;;1.13;;
7675;SDS011;3880;51.464;-2.566;2022-09-17T16:02:33;2.50;;;1.30;;
7675;SDS011;3880;51.464;-2.566;2022-09-17T16:08:19;4.32;;;1.00;;
7675;SDS011;3880;51.464;-2.566;2022-09-17T16:10:49;4.85;;;1.10;;